createdAt,value
2022-08-17T00:00:34.246Z,70.90
2022-08-17T00:03:14.992Z,70.70
2022-08-17T00:05:45.911Z,71.00
2022-08-17T00:08:14.719Z,70.80
2022-08-17T00:10:44.092Z,71.00
2022-08-17T00:13:18.399Z,70.90
2022-08-17T00:15:46.990Z,70.90
2022-08-17T00:18:53.771Z,71.20
2022-08-17T00:21:10.786Z,71.30
2022-08-17T00:23:44.429Z,71.50
2022-08-17T00:26:43.764Z,71.90
2022-08-17T00:29:07.621Z,72.60
2022-08-17T00:31:36.759Z,72.20
2022-08-17T00:34:08.777Z,72.80
2022-08-17T00:36:37.136Z,72.40
2022-08-17T00:39:07.343Z,73.00
2022-08-17T00:41:35.844Z,72.50
2022-08-17T00:44:06.929Z,72.80
2022-08-17T00:46:40.419Z,72.90
2022-08-17T00:49:11.077Z,73.00
2022-08-17T00:51:45.319Z,72.90
2022-08-17T00:54:15.715Z,72.20
2022-08-17T00:56:47.380Z,72.80
2022-08-17T00:59:18.584Z,72.90
2022-08-17T01:01:47.848Z,73.00
2022-08-17T01:04:19.382Z,73.00
2022-08-17T01:06:49.462Z,72.80
2022-08-17T01:09:18.961Z,73.20
2022-08-17T01:11:52.251Z,73.30
2022-08-17T01:14:21.405Z,73.50
2022-08-17T01:16:50.513Z,74.30
2022-08-17T01:19:24.609Z,74.20
2022-08-17T01:21:58.013Z,74.10
2022-08-17T01:24:29.575Z,74.20
2022-08-17T01:26:57.794Z,74.00
2022-08-17T01:29:26.865Z,74.30
2022-08-17T01:31:58.516Z,74.60
2022-08-17T01:34:35.100Z,74.70
2022-08-17T01:37:12.044Z,74.80
2022-08-17T01:39:45.730Z,75.20
2022-08-17T01:42:21.263Z,75.20
2022-08-17T01:44:51.520Z,75.40
2022-08-17T01:47:19.752Z,75.40
2022-08-17T01:49:47.806Z,75.30
2022-08-17T01:52:16.711Z,75.60
2022-08-17T01:54:49.046Z,75.70
2022-08-17T01:57:17.203Z,75.70
2022-08-17T01:59:45.334Z,76.50
2022-08-17T02:02:13.460Z,76.00
2022-08-17T02:05:00.167Z,76.40
2022-08-17T02:07:29.089Z,76.40
2022-08-17T02:09:58.631Z,76.50
2022-08-17T02:12:39.497Z,76.10
2022-08-17T02:15:12.388Z,75.70
2022-08-17T02:17:41.523Z,75.60
2022-08-17T02:20:11.188Z,76.00
2022-08-17T02:22:42.024Z,75.80
2022-08-17T02:25:16.190Z,75.60
2022-08-17T02:27:44.280Z,75.80
2022-08-17T02:31:01.977Z,75.70
2022-08-17T02:33:09.244Z,76.00
2022-08-17T02:35:37.900Z,76.90
2022-08-17T02:38:06.254Z,76.20
2022-08-17T02:40:36.779Z,76.40
2022-08-17T02:43:05.730Z,76.30
2022-08-17T02:45:33.854Z,76.40
2022-08-17T02:48:02.159Z,76.50
2022-08-17T02:50:32.742Z,76.90
2022-08-17T02:53:02.376Z,76.50
2022-08-17T02:55:37.330Z,76.60
2022-08-17T02:58:05.838Z,76.70
2022-08-17T03:00:36.275Z,78.00
2022-08-17T03:03:06.486Z,77.80
2022-08-17T03:05:36.544Z,78.20
2022-08-17T03:08:13.104Z,78.50
2022-08-17T03:10:46.275Z,78.50
2022-08-17T03:13:15.628Z,78.80
2022-08-17T03:15:46.143Z,78.90
2022-08-17T03:18:24.649Z,79.50
2022-08-17T03:20:56.612Z,78.70
2022-08-17T03:23:25.538Z,79.30
2022-08-17T03:25:56.212Z,79.80
2022-08-17T03:28:25.130Z,79.70
2022-08-17T03:30:53.458Z,79.80
2022-08-17T03:33:22.008Z,79.60
2022-08-17T03:35:50.502Z,79.70
2022-08-17T03:38:18.876Z,79.60
2022-08-17T03:40:57.161Z,79.60
2022-08-17T03:43:31.050Z,79.20
2022-08-17T03:46:28.508Z,78.90
2022-08-17T03:49:23.780Z,78.60
2022-08-17T03:52:09.541Z,78.10
2022-08-17T03:54:55.104Z,78.50
2022-08-17T03:57:23.468Z,78.70
2022-08-17T03:59:53.446Z,78.80
2022-08-17T04:02:24.906Z,78.70
2022-08-17T04:04:55.291Z,78.70
2022-08-17T04:07:25.787Z,78.80
2022-08-17T04:09:54.158Z,78.60
2022-08-17T04:12:25.165Z,78.30
2022-08-17T04:14:55.375Z,78.70
2022-08-17T04:17:25.460Z,78.90
2022-08-17T04:19:57.040Z,78.50
2022-08-17T04:22:30.823Z,78.20
2022-08-17T04:25:06.686Z,77.90
2022-08-17T04:27:34.800Z,77.40
2022-08-17T04:30:07.224Z,77.10
2022-08-17T04:33:02.264Z,74.90
2022-08-17T04:35:36.899Z,72.40
2022-08-17T04:38:05.602Z,69.80
2022-08-17T04:40:51.739Z,69.20
2022-08-17T04:43:22.355Z,68.90
2022-08-17T04:45:55.776Z,69.20
2022-08-17T04:48:34.799Z,69.50
2022-08-17T04:51:07.145Z,69.20
2022-08-17T04:53:35.242Z,68.90
2022-08-17T04:56:06.535Z,68.80
2022-08-17T04:58:34.719Z,69.40
2022-08-17T05:01:05.837Z,69.10
2022-08-17T05:03:36.702Z,68.50
2022-08-17T05:06:05.024Z,68.60
2022-08-17T05:08:33.064Z,68.50
2022-08-17T05:11:01.266Z,69.60
2022-08-17T05:13:30.332Z,68.30
2022-08-17T05:16:01.175Z,68.40
2022-08-17T05:18:34.762Z,68.50
2022-08-17T05:21:03.751Z,67.90
2022-08-17T05:23:41.808Z,67.70
2022-08-17T05:26:22.572Z,68.00
2022-08-17T05:28:57.234Z,68.20
2022-08-17T05:31:28.119Z,66.40
2022-08-17T05:33:57.808Z,65.70
2022-08-17T05:36:41.743Z,66.30
2022-08-17T05:39:15.850Z,67.10
2022-08-17T05:41:47.343Z,67.10
2022-08-17T05:44:15.533Z,66.80
2022-08-17T05:46:48.545Z,66.90
2022-08-17T05:49:23.632Z,67.00
2022-08-17T05:52:22.410Z,66.10
2022-08-17T05:55:04.273Z,66.10
2022-08-17T05:57:43.641Z,66.00
2022-08-17T06:00:30.397Z,65.70
2022-08-17T06:03:14.778Z,64.80
2022-08-17T06:05:55.977Z,64.00
2022-08-17T06:08:32.907Z,63.50
2022-08-17T06:11:10.112Z,62.50
2022-08-17T06:13:54.554Z,60.40
2022-08-17T06:16:34.355Z,60.40
2022-08-17T06:19:11.104Z,60.30
2022-08-17T06:21:43.946Z,59.70
2022-08-17T06:24:31.495Z,59.00
2022-08-17T06:27:08.884Z,58.90
2022-08-17T06:29:43.852Z,58.90
2022-08-17T06:32:14.768Z,59.00
2022-08-17T06:34:44.665Z,58.70
2022-08-17T06:37:32.614Z,58.90
2022-08-17T06:40:20.242Z,58.10
2022-08-17T06:43:06.094Z,57.20
2022-08-17T06:45:38.756Z,56.90
2022-08-17T06:48:15.416Z,57.70
2022-08-17T06:50:48.656Z,57.00
2022-08-17T06:53:24.477Z,57.30
2022-08-17T06:55:58.480Z,57.50
2022-08-17T06:58:31.552Z,57.10
2022-08-17T07:01:06.909Z,57.30
2022-08-17T07:03:40.739Z,56.50
2022-08-17T07:06:14.700Z,56.30
2022-08-17T07:08:52.051Z,56.20
2022-08-17T07:11:27.164Z,56.60
2022-08-17T07:14:04.409Z,56.00
2022-08-17T07:16:37.418Z,55.40
2022-08-17T07:19:07.337Z,55.60
2022-08-17T07:21:50.723Z,54.70
2022-08-17T07:24:33.096Z,54.40
2022-08-17T07:27:20.457Z,54.40
2022-08-17T07:29:54.661Z,53.00
2022-08-17T07:32:26.995Z,53.30
2022-08-17T07:35:15.448Z,53.30
2022-08-17T07:37:53.989Z,52.50
2022-08-17T07:40:28.052Z,52.50
2022-08-17T07:43:09.258Z,52.30
2022-08-17T07:46:16.851Z,51.70
2022-08-17T07:48:48.522Z,51.40
2022-08-17T07:51:20.236Z,51.60
2022-08-17T07:53:48.887Z,50.50
2022-08-17T07:56:40.986Z,50.30
2022-08-17T07:59:15.933Z,50.20
2022-08-17T08:01:48.703Z,50.20
2022-08-17T08:07:27.454Z,49.50
2022-08-17T08:10:06.811Z,49.60
2022-08-17T08:12:38.002Z,48.60
2022-08-17T08:15:17.727Z,48.50
2022-08-17T08:17:55.882Z,48.20
2022-08-17T08:20:51.059Z,47.30
2022-08-17T08:23:34.642Z,47.00
2022-08-17T08:26:18.805Z,47.00
2022-08-17T08:28:55.563Z,46.20
2022-08-17T08:31:31.463Z,46.00
2022-08-17T08:34:09.099Z,45.50
2022-08-17T08:37:16.478Z,44.80
2022-08-17T08:40:00.709Z,44.50
2022-08-17T08:42:36.305Z,44.60
2022-08-17T08:45:16.475Z,44.60
2022-08-17T08:48:05.111Z,44.70
2022-08-17T08:50:47.601Z,44.60
2022-08-17T08:53:28.983Z,43.70
2022-08-17T08:56:03.977Z,43.40
2022-08-17T08:58:44.278Z,43.30
2022-08-17T09:01:21.632Z,43.30
2022-08-17T09:04:18.322Z,43.00
2022-08-17T09:06:58.224Z,42.40
2022-08-17T09:09:34.395Z,43.10
2022-08-17T09:12:06.311Z,42.00
2022-08-17T09:14:46.662Z,41.50
2022-08-17T09:17:21.603Z,41.40
2022-08-17T09:19:55.330Z,40.00
2022-08-17T09:22:34.425Z,39.90
2022-08-17T09:25:10.068Z,39.70
2022-08-17T09:27:51.575Z,39.50
2022-08-17T09:30:20.653Z,39.10
2022-08-17T09:32:57.525Z,39.00
2022-08-17T09:35:36.588Z,38.70
2022-08-17T09:38:19.362Z,38.80
2022-08-17T09:40:53.867Z,38.60
2022-08-17T09:43:31.740Z,37.40
2022-08-17T09:46:06.696Z,37.80
2022-08-17T09:48:42.601Z,37.10
2022-08-17T09:51:19.248Z,36.80
2022-08-17T09:53:47.626Z,35.90
2022-08-17T09:56:45.363Z,35.50
2022-08-17T09:59:39.154Z,35.00
2022-08-17T10:02:38.134Z,35.30
2022-08-17T10:05:13.522Z,34.50
2022-08-17T10:07:50.187Z,34.10
2022-08-17T10:10:26.765Z,33.60
2022-08-17T10:13:01.079Z,33.50
2022-08-17T10:15:46.765Z,34.10
2022-08-17T10:18:33.232Z,33.30
2022-08-17T10:21:24.646Z,32.00
2022-08-17T10:24:15.760Z,32.20
2022-08-17T10:26:56.286Z,32.70
2022-08-17T10:29:46.229Z,33.00
2022-08-17T10:32:27.482Z,32.80
2022-08-17T10:35:18.862Z,31.90
2022-08-17T10:37:59.569Z,31.70
2022-08-17T10:40:36.711Z,31.10
2022-08-17T10:43:20.430Z,30.70
2022-08-17T10:46:27.861Z,31.00
2022-08-17T10:49:22.996Z,31.60
2022-08-17T10:51:54.400Z,30.60
2022-08-17T10:54:39.057Z,29.80
2022-08-17T10:57:36.135Z,29.50
2022-08-17T11:00:09.917Z,28.60
2022-08-17T11:02:47.881Z,28.10
2022-08-17T11:05:44.421Z,27.90
2022-08-17T11:08:45.175Z,27.50
2022-08-17T11:11:34.487Z,26.80
2022-08-17T11:14:17.158Z,27.10
2022-08-17T11:17:00.105Z,26.70
2022-08-17T11:19:47.186Z,27.50
2022-08-17T11:22:33.979Z,27.30
2022-08-17T11:25:14.724Z,27.70
2022-08-17T11:27:45.049Z,27.30
2022-08-17T11:30:22.547Z,27.10
2022-08-17T11:32:58.372Z,26.70
2022-08-17T11:35:37.032Z,26.00
2022-08-17T11:38:19.575Z,26.80
2022-08-17T11:41:09.639Z,27.30
2022-08-17T11:44:15.330Z,27.30
2022-08-17T11:47:19.200Z,26.00
2022-08-17T11:50:27.593Z,26.60
2022-08-17T11:52:56.573Z,26.70
2022-08-17T11:56:01.815Z,27.20
2022-08-17T11:58:40.000Z,26.80
2022-08-17T12:01:13.625Z,27.30
2022-08-17T12:03:54.440Z,27.60
2022-08-17T12:06:41.238Z,27.70
2022-08-17T12:09:16.966Z,28.30
2022-08-17T12:11:55.433Z,28.30
2022-08-17T12:15:08.392Z,28.60
2022-08-17T12:17:41.328Z,28.80
2022-08-17T12:20:16.255Z,28.50
2022-08-17T12:22:54.874Z,28.40
2022-08-17T12:25:31.411Z,28.40
2022-08-17T12:28:06.825Z,28.60
2022-08-17T12:30:37.224Z,28.10
2022-08-17T12:33:25.039Z,27.90
2022-08-17T12:35:59.951Z,28.30
2022-08-17T12:38:33.080Z,27.70
2022-08-17T12:41:23.414Z,27.20
2022-08-17T12:44:01.954Z,26.70
2022-08-17T12:46:35.996Z,26.80
2022-08-17T12:49:24.045Z,27.00
2022-08-17T12:51:58.408Z,26.60
2022-08-17T12:54:35.897Z,26.30
2022-08-17T12:57:12.011Z,26.10
2022-08-17T12:59:44.041Z,26.30
2022-08-17T13:02:29.760Z,26.70
2022-08-17T13:05:02.074Z,27.40
2022-08-17T13:07:35.143Z,27.60
2022-08-17T13:10:03.666Z,27.50
2022-08-17T13:12:36.338Z,26.90
2022-08-17T13:15:05.329Z,26.90
2022-08-17T13:17:36.137Z,27.10
2022-08-17T13:20:14.747Z,27.00
2022-08-17T13:22:44.393Z,27.10
2022-08-17T13:25:17.552Z,26.70
2022-08-17T13:27:47.911Z,26.20
2022-08-17T13:30:24.807Z,26.10
2022-08-17T13:32:54.185Z,26.00
2022-08-17T13:35:40.360Z,26.10
2022-08-17T13:38:12.061Z,26.60
2022-08-17T13:40:50.360Z,26.60
2022-08-17T13:43:44.564Z,27.10
2022-08-17T13:46:19.610Z,27.10
2022-08-17T13:48:57.759Z,27.10
2022-08-17T13:51:30.734Z,27.50
2022-08-17T13:54:19.974Z,27.60
2022-08-17T13:56:56.328Z,28.20
2022-08-17T13:59:53.326Z,28.50
2022-08-17T14:02:22.491Z,28.60
2022-08-17T14:04:55.787Z,28.70
2022-08-17T14:07:30.865Z,28.90
2022-08-17T14:10:01.786Z,28.80
2022-08-17T14:12:32.786Z,28.60
2022-08-17T14:15:01.468Z,28.30
2022-08-17T14:17:36.349Z,28.00
2022-08-17T14:20:09.459Z,27.60
2022-08-17T14:22:42.164Z,28.00
2022-08-17T14:25:12.231Z,27.90
2022-08-17T14:27:51.922Z,27.40
2022-08-17T14:30:23.626Z,27.30
2022-08-17T14:32:53.170Z,27.90
2022-08-17T14:35:23.840Z,27.30
2022-08-17T14:37:54.272Z,27.70
2022-08-17T14:40:24.400Z,27.90
2022-08-17T14:42:54.406Z,27.80
2022-08-17T14:45:30.003Z,27.20
2022-08-17T14:48:04.489Z,27.30
2022-08-17T14:50:35.421Z,27.80
2022-08-17T14:53:06.473Z,27.60
2022-08-17T14:55:36.806Z,27.70
2022-08-17T14:58:04.992Z,28.60
2022-08-17T15:00:33.142Z,28.70
2022-08-17T15:03:02.220Z,29.00
2022-08-17T15:05:34.789Z,29.20
2022-08-17T15:08:06.502Z,30.20
2022-08-17T15:10:35.300Z,31.40
2022-08-17T15:13:03.391Z,32.20
2022-08-17T15:15:31.540Z,32.70
2022-08-17T15:18:01.014Z,33.50
2022-08-17T15:20:30.906Z,34.00
2022-08-17T15:22:59.656Z,34.20
2022-08-17T15:25:31.691Z,34.60
2022-08-17T15:28:01.091Z,34.70
2022-08-17T15:30:30.206Z,34.70
2022-08-17T15:32:59.290Z,34.40
2022-08-17T15:35:32.407Z,34.80
2022-08-17T15:38:09.792Z,35.20
2022-08-17T15:40:43.922Z,35.50
2022-08-17T15:43:15.958Z,35.80
2022-08-17T15:45:45.065Z,36.10
2022-08-17T15:48:40.743Z,36.10
2022-08-17T15:51:11.594Z,36.40
2022-08-17T15:53:40.704Z,36.50
2022-08-17T15:56:10.798Z,36.20
2022-08-17T15:58:43.587Z,36.40
2022-08-17T16:01:14.901Z,36.20
2022-08-17T16:04:05.037Z,36.20
2022-08-17T16:06:34.973Z,36.50
2022-08-17T16:09:03.520Z,36.20
2022-08-17T16:11:32.997Z,36.40
2022-08-17T16:14:01.210Z,36.20
2022-08-17T16:16:31.236Z,36.80
2022-08-17T16:18:59.452Z,36.50
2022-08-17T16:21:31.244Z,36.50
2022-08-17T16:24:13.440Z,36.60
2022-08-17T16:26:43.723Z,36.70
2022-08-17T16:29:11.912Z,36.40
2022-08-17T16:31:42.008Z,36.40
2022-08-17T16:34:17.799Z,36.40
2022-08-17T16:36:51.867Z,36.70
2022-08-17T16:39:23.878Z,36.80
2022-08-17T16:41:53.380Z,36.90
2022-08-17T16:44:22.748Z,37.10
2022-08-17T16:46:51.566Z,37.20
2022-08-17T16:49:35.088Z,37.10
2022-08-17T16:52:10.614Z,37.20
2022-08-17T16:54:44.083Z,37.30
2022-08-17T16:57:15.965Z,37.30
2022-08-17T16:59:48.036Z,37.30
2022-08-17T17:02:17.151Z,37.50
2022-08-17T17:04:52.727Z,37.70
2022-08-17T17:07:46.518Z,37.80
2022-08-17T17:10:17.792Z,38.20
2022-08-17T17:13:02.427Z,38.30
2022-08-17T17:15:47.024Z,38.50
2022-08-17T17:18:16.665Z,38.50
2022-08-17T17:20:53.476Z,38.20
2022-08-17T17:23:35.659Z,38.30
2022-08-17T17:26:34.309Z,38.50
2022-08-17T17:29:29.077Z,38.60
2022-08-17T17:32:21.795Z,39.50
2022-08-17T17:34:54.592Z,39.10
2022-08-17T17:37:28.381Z,39.10
2022-08-17T17:40:03.700Z,39.20
2022-08-17T17:42:33.570Z,39.60
2022-08-17T17:45:08.480Z,39.50
2022-08-17T17:47:37.146Z,39.80
2022-08-17T17:50:10.249Z,40.00
2022-08-17T17:52:48.065Z,40.00
2022-08-17T17:55:31.186Z,40.30
2022-08-17T17:58:10.179Z,39.90
2022-08-17T18:00:50.153Z,39.90
2022-08-17T18:03:28.777Z,40.10
2022-08-17T18:06:12.523Z,40.30
2022-08-17T18:08:59.990Z,40.40
2022-08-17T18:11:53.862Z,40.60
2022-08-17T18:14:43.766Z,40.90
2022-08-17T18:17:14.285Z,41.70
2022-08-17T18:19:42.469Z,41.30
2022-08-17T18:22:14.552Z,41.50
2022-08-17T18:24:46.108Z,42.30
2022-08-17T18:27:24.182Z,41.70
2022-08-17T18:29:54.659Z,42.10
2022-08-17T18:32:32.612Z,42.30
2022-08-17T18:35:27.668Z,42.00
2022-08-17T18:37:58.643Z,42.40
2022-08-17T18:40:34.271Z,42.70
2022-08-17T18:43:13.186Z,42.10
2022-08-17T18:45:46.922Z,42.80
2022-08-17T18:48:24.321Z,42.90
2022-08-17T18:50:53.929Z,43.30
2022-08-17T18:53:34.715Z,43.60
2022-08-17T18:56:30.967Z,44.00
2022-08-17T18:59:18.659Z,44.10
2022-08-17T19:02:00.813Z,44.50
2022-08-17T19:04:36.824Z,44.40
2022-08-17T19:07:10.346Z,44.50
2022-08-17T19:09:45.316Z,44.70
2022-08-17T19:12:27.438Z,45.40
2022-08-17T19:14:57.862Z,45.80
2022-08-17T19:17:33.254Z,45.70
2022-08-17T19:20:07.044Z,46.30
2022-08-17T19:22:48.047Z,45.80
2022-08-17T19:25:23.908Z,46.60
2022-08-17T19:28:01.098Z,46.50
2022-08-17T19:30:31.807Z,45.80
2022-08-17T19:33:01.992Z,45.50
2022-08-17T19:35:43.400Z,45.90
2022-08-17T19:38:26.648Z,46.60
2022-08-17T19:41:04.105Z,46.20
2022-08-17T19:43:50.459Z,46.50
2022-08-17T19:46:28.629Z,46.70
2022-08-17T19:49:05.272Z,46.90
2022-08-17T19:51:44.972Z,47.20
2022-08-17T19:54:20.451Z,47.20
2022-08-17T19:56:56.545Z,48.30
2022-08-17T19:59:36.059Z,47.70
2022-08-17T20:02:16.265Z,47.80
2022-08-17T20:04:47.668Z,47.60
2022-08-17T20:07:23.549Z,47.70
2022-08-17T20:09:57.618Z,47.80
2022-08-17T20:12:32.243Z,47.70
2022-08-17T20:15:05.617Z,48.60
2022-08-17T20:17:38.102Z,48.30
2022-08-17T20:20:19.937Z,48.80
2022-08-17T20:22:58.574Z,48.60
2022-08-17T20:25:38.907Z,49.00
2022-08-17T20:28:19.045Z,49.20
2022-08-17T20:30:50.743Z,49.40
2022-08-17T20:33:28.059Z,49.40
2022-08-17T20:36:12.802Z,49.80
2022-08-17T20:38:47.097Z,49.50
2022-08-17T20:41:17.317Z,49.30
2022-08-17T20:44:03.872Z,49.90
2022-08-17T20:46:52.558Z,50.40
2022-08-17T20:49:27.656Z,50.40
2022-08-17T20:52:02.511Z,50.70
2022-08-17T20:54:48.805Z,50.90
2022-08-17T20:57:47.422Z,51.90
2022-08-17T21:00:46.550Z,51.50
2022-08-17T21:03:50.915Z,51.00
2022-08-17T21:06:22.683Z,51.00
2022-08-17T21:08:58.607Z,51.10
2022-08-17T21:12:04.865Z,51.10
2022-08-17T21:14:57.370Z,50.90
2022-08-17T21:17:44.563Z,50.90
2022-08-17T21:20:26.387Z,51.00
2022-08-17T21:23:21.189Z,51.00
2022-08-17T21:26:09.048Z,50.70
2022-08-17T21:29:01.039Z,50.60
2022-08-17T21:31:34.355Z,50.50
2022-08-17T21:34:28.061Z,50.70
2022-08-17T21:36:57.672Z,51.00
2022-08-17T21:39:34.118Z,51.10
2022-08-17T21:42:04.568Z,51.30
2022-08-17T21:44:37.642Z,51.40
2022-08-17T21:47:20.470Z,51.50
2022-08-17T21:49:49.659Z,51.80
2022-08-17T21:52:22.884Z,51.80
2022-08-17T21:54:54.415Z,52.00
2022-08-17T21:57:27.582Z,52.10
2022-08-17T21:59:59.226Z,52.20
2022-08-17T22:02:32.355Z,52.20
2022-08-17T22:05:03.089Z,52.40
2022-08-17T22:07:42.101Z,52.40
2022-08-17T22:10:30.487Z,52.40
2022-08-17T22:13:16.617Z,52.40
2022-08-17T22:15:49.369Z,52.60
2022-08-17T22:18:22.087Z,52.50
2022-08-17T22:20:52.377Z,52.60
2022-08-17T22:23:44.060Z,52.60
2022-08-17T22:26:15.570Z,52.70
2022-08-17T22:28:46.912Z,52.70
2022-08-17T22:31:19.229Z,52.60
2022-08-17T22:33:49.457Z,52.70
2022-08-17T22:36:29.526Z,52.60
2022-08-17T22:39:02.059Z,52.80
2022-08-17T22:41:46.373Z,52.90
2022-08-17T22:44:20.344Z,53.00
2022-08-17T22:47:11.460Z,53.00
2022-08-17T22:49:54.007Z,53.20
2022-08-17T22:52:34.022Z,53.10
2022-08-17T22:55:30.157Z,53.10
2022-08-17T22:58:16.558Z,53.20
2022-08-17T23:00:46.574Z,53.20
2022-08-17T23:03:21.760Z,53.20
2022-08-17T23:06:13.062Z,53.20
2022-08-17T23:08:57.908Z,53.30
2022-08-17T23:11:48.615Z,53.40
2022-08-17T23:14:22.716Z,53.20
2022-08-17T23:16:51.118Z,53.30
2022-08-17T23:19:22.843Z,53.30
2022-08-17T23:21:55.310Z,53.30
2022-08-17T23:24:25.924Z,54.00
2022-08-17T23:26:54.243Z,53.30
2022-08-17T23:29:22.510Z,53.50
2022-08-17T23:31:53.123Z,53.60
2022-08-17T23:34:24.199Z,53.50
2022-08-17T23:36:53.126Z,53.60
2022-08-17T23:39:27.477Z,54.30
2022-08-17T23:41:57.108Z,53.80
2022-08-17T23:44:25.767Z,54.50
2022-08-17T23:46:54.753Z,54.00
2022-08-17T23:49:25.092Z,54.00
2022-08-17T23:51:54.699Z,54.10
2022-08-17T23:54:26.000Z,54.20
2022-08-17T23:56:54.139Z,54.40
2022-08-17T23:59:24.694Z,54.40
